createdAt,value
2023-05-01T00:00:20.409Z,7.05
2023-05-01T00:02:53.508Z,5.72
2023-05-01T00:05:21.760Z,6.22
2023-05-01T00:07:50.029Z,7.68
2023-05-01T00:10:20.077Z,4.13
2023-05-01T00:12:48.230Z,5.30
2023-05-01T00:15:16.824Z,6.30
2023-05-01T00:17:44.899Z,6.78
2023-05-01T00:20:13.178Z,4.43
2023-05-01T00:22:41.572Z,6.07
2023-05-01T00:25:10.977Z,6.90
2023-05-01T00:27:39.043Z,5.75
2023-05-01T00:30:07.769Z,7.53
2023-05-01T00:32:36.110Z,7.30
2023-05-01T00:35:04.454Z,9.60
2023-05-01T00:37:32.587Z,7.47
2023-05-01T00:40:00.893Z,7.18
2023-05-01T00:42:28.950Z,10.15
2023-05-01T00:44:57.147Z,7.20
2023-05-01T00:47:25.240Z,6.68
2023-05-01T00:49:54.665Z,8.70
2023-05-01T00:52:22.901Z,11.65
2023-05-01T00:54:52.595Z,9.57
2023-05-01T00:57:24.000Z,9.07
2023-05-01T00:59:52.053Z,8.05
2023-05-01T01:02:20.125Z,7.30
2023-05-01T01:04:48.875Z,9.20
2023-05-01T01:07:27.940Z,8.98
2023-05-01T01:10:21.324Z,8.85
2023-05-01T01:13:15.365Z,6.88
2023-05-01T01:15:43.656Z,7.13
2023-05-01T01:18:30.669Z,7.13
2023-05-01T01:21:15.144Z,10.27
2023-05-01T01:23:43.180Z,7.38
2023-05-01T01:26:22.764Z,6.28
2023-05-01T01:29:04.416Z,9.65
2023-05-01T01:31:53.869Z,8.60
2023-05-01T01:34:36.886Z,6.22
2023-05-01T01:37:15.458Z,9.63
2023-05-01T01:40:12.282Z,6.22
2023-05-01T01:42:53.437Z,8.43
2023-05-01T01:45:24.642Z,6.70
2023-05-01T01:47:54.274Z,5.55
2023-05-01T01:50:25.782Z,6.63
2023-05-01T01:52:55.049Z,5.75
2023-05-01T01:55:27.911Z,9.18
2023-05-01T01:57:57.469Z,8.73
2023-05-01T02:00:25.566Z,8.80
2023-05-01T02:02:54.085Z,10.15
2023-05-01T02:05:23.901Z,7.28
2023-05-01T02:07:53.259Z,9.30
2023-05-01T02:10:23.094Z,7.10
2023-05-01T02:12:52.865Z,9.05
2023-05-01T02:15:21.551Z,8.73
2023-05-01T02:17:52.318Z,6.13
2023-05-01T02:20:21.646Z,6.97
2023-05-01T02:22:51.177Z,7.88
2023-05-01T02:25:19.423Z,6.40
2023-05-01T02:28:18.403Z,6.43
2023-05-01T02:30:47.423Z,5.68
2023-05-01T02:33:15.568Z,6.68
2023-05-01T02:35:49.930Z,8.18
2023-05-01T02:38:19.866Z,6.55
2023-05-01T02:40:53.020Z,7.55
2023-05-01T02:43:23.839Z,6.90
2023-05-01T02:45:53.362Z,6.85
2023-05-01T02:48:24.626Z,8.27
2023-05-01T02:50:53.311Z,7.35
2023-05-01T02:53:23.095Z,8.82
2023-05-01T02:55:56.086Z,6.80
2023-05-01T02:58:24.844Z,6.15
2023-05-01T03:00:53.970Z,5.97
2023-05-01T03:03:22.344Z,6.95
2023-05-01T03:05:52.168Z,7.55
2023-05-01T03:08:20.838Z,5.47
2023-05-01T03:10:49.191Z,7.35
2023-05-01T03:13:17.155Z,11.48
2023-05-01T03:15:46.064Z,8.50
2023-05-01T03:18:14.188Z,7.80
2023-05-01T03:20:51.125Z,10.95
2023-05-01T03:23:22.227Z,6.50
2023-05-01T03:25:50.957Z,5.63
2023-05-01T03:28:19.350Z,11.85
2023-05-01T03:30:47.632Z,9.93
2023-05-01T03:33:15.950Z,7.00
2023-05-01T03:35:44.528Z,8.00
2023-05-01T03:38:12.789Z,10.75
2023-05-01T03:41:01.504Z,6.82
2023-05-01T03:43:48.008Z,7.05
2023-05-01T03:46:27.544Z,5.93
2023-05-01T03:48:55.820Z,13.90
2023-05-01T03:51:24.443Z,8.52
2023-05-01T03:53:59.117Z,6.32
2023-05-01T03:56:35.880Z,8.60
2023-05-01T03:59:06.383Z,6.28
2023-05-01T04:05:42.957Z,7.13
2023-05-01T04:08:11.712Z,7.07
2023-05-01T04:10:40.096Z,10.68
2023-05-01T04:13:08.331Z,8.15
2023-05-01T04:15:36.649Z,7.10
2023-05-01T04:18:10.525Z,7.13
2023-05-01T04:20:38.819Z,5.70
2023-05-01T04:23:07.085Z,9.60
2023-05-01T04:25:36.083Z,8.80
2023-05-01T04:28:12.929Z,7.05
2023-05-01T04:30:41.052Z,6.47
2023-05-01T04:33:12.389Z,9.43
2023-05-01T04:35:41.927Z,7.30
2023-05-01T04:38:10.922Z,5.50
2023-05-01T04:40:40.597Z,9.13
2023-05-01T04:43:08.568Z,9.85
2023-05-01T04:45:39.430Z,9.40
2023-05-01T04:48:08.179Z,9.55
2023-05-01T04:50:36.416Z,9.50
2023-05-01T04:53:04.664Z,11.15
2023-05-01T04:55:34.811Z,6.55
2023-05-01T04:58:15.425Z,7.43
2023-05-01T05:00:45.748Z,10.82
2023-05-01T05:03:21.099Z,7.57
2023-05-01T05:05:49.343Z,7.03
2023-05-01T05:08:17.360Z,6.78
2023-05-01T05:10:59.970Z,7.38
2023-05-01T05:13:32.335Z,10.32
2023-05-01T05:16:03.476Z,8.00
2023-05-01T05:18:31.910Z,8.60
2023-05-01T05:21:05.457Z,6.60
2023-05-01T05:23:34.400Z,8.68
2023-05-01T05:26:03.209Z,7.30
2023-05-01T05:28:32.992Z,7.00
2023-05-01T05:31:01.986Z,8.73
2023-05-01T05:33:31.014Z,9.65
2023-05-01T05:36:03.497Z,11.55
2023-05-01T05:38:37.300Z,6.13
2023-05-01T05:41:08.210Z,7.00
2023-05-01T05:43:37.734Z,5.22
2023-05-01T05:46:08.151Z,7.55
2023-05-01T05:48:37.958Z,7.03
2023-05-01T05:51:06.419Z,7.15
2023-05-01T05:53:35.755Z,6.15
2023-05-01T05:56:03.822Z,10.50
2023-05-01T05:58:33.144Z,7.90
2023-05-01T06:01:02.793Z,6.65
2023-05-01T06:03:31.424Z,6.82
2023-05-01T06:06:03.340Z,6.32
2023-05-01T06:08:31.687Z,5.40
2023-05-01T06:11:00.366Z,5.85
2023-05-01T06:13:28.848Z,7.80
2023-05-01T06:15:57.701Z,6.95
2023-05-01T06:18:26.472Z,6.30
2023-05-01T06:20:54.715Z,7.40
2023-05-01T06:23:22.965Z,4.88
2023-05-01T06:26:13.898Z,6.83
2023-05-01T06:28:42.097Z,6.22
2023-05-01T06:31:10.975Z,6.35
2023-05-01T06:33:45.388Z,5.63
2023-05-01T06:36:24.420Z,5.10
2023-05-01T06:38:52.583Z,5.00
2023-05-01T06:41:22.562Z,6.57
2023-05-01T06:43:50.612Z,5.20
2023-05-01T06:46:18.934Z,5.68
2023-05-01T06:48:48.359Z,5.43
2023-05-01T06:51:16.755Z,9.65
2023-05-01T06:53:44.787Z,6.57
2023-05-01T06:56:13.124Z,8.43
2023-05-01T06:58:41.359Z,5.45
2023-05-01T07:01:10.012Z,6.38
2023-05-01T07:03:38.119Z,8.45
2023-05-01T07:06:06.466Z,5.25
2023-05-01T07:08:34.525Z,7.25
2023-05-01T07:11:02.835Z,7.55
2023-05-01T07:13:31.289Z,7.97
2023-05-01T07:16:02.658Z,8.70
2023-05-01T07:18:30.950Z,7.25
2023-05-01T07:20:59.025Z,8.30
2023-05-01T07:23:27.573Z,11.07
2023-05-01T07:25:56.292Z,8.27
2023-05-01T07:28:24.567Z,6.78
2023-05-01T07:30:52.984Z,7.90
2023-05-01T07:33:21.173Z,10.05
2023-05-01T07:35:49.424Z,12.40
2023-05-01T07:38:17.922Z,11.00
2023-05-01T07:40:45.943Z,11.70
2023-05-01T07:43:14.075Z,10.02
2023-05-01T07:45:43.532Z,10.15
2023-05-01T07:48:11.835Z,12.20
2023-05-01T07:50:40.331Z,9.13
2023-05-01T07:53:08.643Z,10.70
2023-05-01T07:55:36.574Z,11.77
2023-05-01T07:58:04.651Z,10.15
2023-05-01T08:00:32.615Z,9.07
2023-05-01T08:03:00.957Z,10.65
2023-05-01T08:05:29.404Z,16.10
2023-05-01T08:07:57.564Z,11.98
2023-05-01T08:10:26.354Z,7.13
2023-05-01T08:12:54.537Z,8.35
2023-05-01T08:15:22.617Z,12.75
2023-05-01T08:17:51.671Z,12.05
2023-05-01T08:20:20.410Z,8.73
2023-05-01T08:22:48.400Z,9.63
2023-05-01T08:25:16.378Z,9.82
2023-05-01T08:27:44.656Z,9.60
2023-05-01T08:30:12.827Z,9.73
2023-05-01T08:32:41.031Z,8.57
2023-05-01T08:35:09.998Z,8.35
2023-05-01T08:37:39.317Z,7.22
2023-05-01T08:40:10.832Z,6.97
2023-05-01T08:42:39.387Z,8.02
2023-05-01T08:45:10.999Z,7.68
2023-05-01T08:47:40.954Z,7.47
2023-05-01T08:50:12.439Z,7.35
2023-05-01T08:52:44.187Z,5.53
2023-05-01T08:55:14.782Z,7.15
2023-05-01T08:57:46.955Z,8.52
2023-05-01T09:00:22.213Z,13.65
2023-05-01T09:02:51.530Z,7.13
2023-05-01T09:05:20.780Z,7.22
2023-05-01T09:07:49.682Z,8.90
2023-05-01T09:10:19.344Z,5.53
2023-05-01T09:12:55.025Z,7.88
2023-05-01T09:15:23.320Z,6.85
2023-05-01T09:17:52.007Z,6.60
2023-05-01T09:20:20.866Z,6.38
2023-05-01T09:22:49.464Z,6.40
2023-05-01T09:25:18.200Z,8.13
2023-05-01T09:27:47.346Z,7.70
2023-05-01T09:30:33.615Z,6.93
2023-05-01T09:33:14.510Z,6.18
2023-05-01T09:35:56.422Z,4.63
2023-05-01T09:38:26.715Z,7.10
2023-05-01T09:40:57.560Z,6.35
2023-05-01T09:46:10.400Z,5.30
2023-05-01T09:48:39.547Z,6.25
2023-05-01T09:51:25.915Z,6.78
2023-05-01T09:53:58.082Z,6.28
2023-05-01T09:56:34.465Z,5.75
2023-05-01T09:59:22.373Z,5.70
2023-05-01T10:01:51.062Z,5.25
2023-05-01T10:04:19.804Z,4.85
2023-05-01T10:06:48.444Z,5.38
2023-05-01T10:09:29.076Z,5.20
2023-05-01T10:11:59.421Z,5.45
2023-05-01T10:14:30.497Z,5.35
2023-05-01T10:17:00.199Z,5.60
2023-05-01T10:19:28.905Z,8.13
2023-05-01T10:21:57.476Z,6.85
2023-05-01T10:24:25.681Z,4.97
2023-05-01T10:26:54.157Z,6.03
2023-05-01T10:29:23.564Z,5.72
2023-05-01T10:31:52.163Z,7.80
2023-05-01T10:34:26.248Z,4.25
2023-05-01T10:37:00.471Z,5.38
2023-05-01T10:39:36.111Z,5.30
2023-05-01T10:42:11.777Z,6.57
2023-05-01T10:44:40.201Z,4.60
2023-05-01T10:47:32.101Z,6.45
2023-05-01T10:50:10.370Z,5.38
2023-05-01T10:53:14.916Z,5.15
2023-05-01T10:55:45.422Z,3.83
2023-05-01T10:58:15.123Z,4.00
2023-05-01T11:00:43.225Z,5.03
2023-05-01T11:03:23.924Z,4.25
2023-05-01T11:08:34.242Z,4.30
2023-05-01T11:11:31.188Z,3.92
2023-05-01T11:14:03.330Z,4.50
2023-05-01T11:16:44.289Z,6.32
2023-05-01T11:19:22.038Z,3.08
2023-05-01T11:21:54.694Z,6.20
2023-05-01T11:24:33.466Z,4.43
2023-05-01T11:27:05.377Z,3.33
2023-05-01T11:29:34.477Z,4.05
2023-05-01T11:32:02.734Z,4.93
2023-05-01T11:34:38.282Z,3.72
2023-05-01T11:37:06.860Z,3.20
2023-05-01T11:39:38.151Z,7.45
2023-05-01T11:42:12.853Z,3.95
2023-05-01T11:44:41.653Z,5.78
2023-05-01T11:47:12.607Z,5.88
2023-05-01T11:49:42.359Z,6.95
2023-05-01T11:52:10.550Z,5.88
2023-05-01T11:54:49.021Z,5.25
2023-05-01T11:57:17.724Z,6.97
2023-05-01T11:59:48.531Z,4.40
2023-05-01T12:02:24.864Z,4.18
2023-05-01T12:04:54.458Z,3.65
2023-05-01T12:07:30.564Z,6.63
2023-05-01T12:09:59.061Z,5.25
2023-05-01T12:12:27.463Z,5.00
2023-05-01T12:14:56.374Z,4.32
2023-05-01T12:17:24.917Z,4.53
2023-05-01T12:19:53.320Z,3.97
2023-05-01T12:22:22.194Z,3.88
2023-05-01T12:24:54.563Z,3.60
2023-05-01T12:27:23.327Z,5.35
2023-05-01T12:29:51.851Z,4.13
2023-05-01T12:32:20.173Z,5.75
2023-05-01T12:34:49.138Z,4.22
2023-05-01T12:37:18.103Z,4.00
2023-05-01T12:39:46.697Z,3.67
2023-05-01T12:42:15.761Z,5.35
2023-05-01T12:44:45.165Z,4.22
2023-05-01T12:47:14.230Z,5.85
2023-05-01T12:49:42.590Z,3.53
2023-05-01T12:52:10.882Z,3.42
2023-05-01T12:54:43.977Z,2.95
2023-05-01T12:57:18.614Z,3.20
2023-05-01T12:59:49.898Z,4.68
2023-05-01T13:02:19.023Z,4.75
2023-05-01T13:04:51.838Z,2.97
2023-05-01T13:07:21.112Z,5.05
2023-05-01T13:09:54.229Z,3.75
2023-05-01T13:12:23.315Z,3.92
2023-05-01T13:14:52.097Z,6.30
2023-05-01T13:17:26.411Z,4.30
2023-05-01T13:20:05.565Z,3.15
2023-05-01T13:22:40.588Z,5.72
2023-05-01T13:25:21.794Z,3.70
2023-05-01T13:27:51.879Z,3.65
2023-05-01T13:30:24.570Z,3.58
2023-05-01T13:32:53.278Z,5.00
2023-05-01T13:35:25.722Z,2.55
2023-05-01T13:37:54.714Z,5.00
2023-05-01T13:40:23.960Z,2.80
2023-05-01T13:42:54.486Z,5.78
2023-05-01T13:45:22.845Z,6.85
2023-05-01T13:47:52.479Z,2.47
2023-05-01T13:50:21.885Z,4.18
2023-05-01T13:52:50.267Z,3.90
2023-05-01T13:55:19.165Z,4.15
2023-05-01T13:57:47.732Z,2.75
2023-05-01T14:00:20.066Z,3.92
2023-05-01T14:02:49.940Z,3.85
2023-05-01T14:05:24.144Z,2.92
2023-05-01T14:07:56.126Z,3.75
2023-05-01T14:10:28.953Z,2.58
2023-05-01T14:12:59.306Z,3.53
2023-05-01T14:17:59.271Z,5.13
2023-05-01T14:20:27.781Z,3.38
2023-05-01T14:22:56.131Z,3.40
2023-05-01T14:25:34.304Z,2.67
2023-05-01T14:28:08.187Z,2.40
2023-05-01T14:30:38.903Z,3.90
2023-05-01T14:35:50.905Z,4.07
2023-05-01T14:38:20.822Z,3.50
2023-05-01T14:40:49.820Z,3.22
2023-05-01T14:43:20.166Z,3.72
2023-05-01T14:45:50.101Z,2.22
2023-05-01T14:48:23.638Z,3.47
2023-05-01T14:50:52.745Z,3.75
2023-05-01T14:53:21.300Z,2.97
2023-05-01T14:55:52.043Z,3.53
2023-05-01T15:00:49.385Z,3.42
2023-05-01T15:03:17.918Z,2.58
2023-05-01T15:05:46.494Z,2.97
2023-05-01T15:08:14.996Z,4.45
2023-05-01T15:10:46.047Z,2.28
2023-05-01T15:13:14.233Z,1.95
2023-05-01T15:15:42.653Z,3.67
2023-05-01T15:18:11.872Z,4.07
2023-05-01T15:20:40.063Z,2.97
2023-05-01T15:23:08.126Z,3.13
2023-05-01T15:25:36.840Z,3.00
2023-05-01T15:28:05.160Z,3.72
2023-05-01T15:30:33.469Z,5.25
2023-05-01T15:33:02.101Z,2.85
2023-05-01T15:35:31.439Z,2.70
2023-05-01T15:38:00.457Z,3.65
2023-05-01T15:40:29.014Z,3.83
2023-05-01T15:42:59.727Z,2.13
2023-05-01T15:45:28.095Z,3.92
2023-05-01T15:47:57.709Z,2.50
2023-05-01T15:50:27.846Z,2.83
2023-05-01T15:52:57.690Z,3.05
2023-05-01T15:55:26.170Z,2.90
2023-05-01T15:57:54.530Z,3.08
2023-05-01T16:00:23.009Z,5.38
2023-05-01T16:02:51.786Z,3.08
2023-05-01T16:05:27.233Z,3.08
2023-05-01T16:08:00.030Z,3.35
2023-05-01T16:10:37.507Z,2.63
2023-05-01T16:13:08.711Z,4.10
2023-05-01T16:18:06.411Z,5.53
2023-05-01T16:20:39.601Z,2.72
2023-05-01T16:23:08.882Z,3.95
2023-05-01T16:25:37.765Z,4.55
2023-05-01T16:28:07.304Z,4.45
2023-05-01T16:30:35.906Z,6.05
2023-05-01T16:33:04.181Z,3.38
2023-05-01T16:35:32.643Z,5.60
2023-05-01T16:38:01.502Z,2.95
2023-05-01T16:40:30.109Z,3.30
2023-05-01T16:43:02.488Z,3.17
2023-05-01T16:45:32.959Z,2.38
2023-05-01T16:48:01.711Z,3.38
2023-05-01T16:50:34.192Z,2.25
2023-05-01T16:53:02.385Z,4.32
2023-05-01T16:55:33.057Z,3.08
2023-05-01T16:58:01.693Z,4.05
2023-05-01T17:00:31.580Z,4.85
2023-05-01T17:03:00.328Z,4.28
2023-05-01T17:05:28.897Z,2.35
2023-05-01T17:07:56.938Z,2.83
2023-05-01T17:10:25.029Z,2.95
2023-05-01T17:12:52.982Z,4.32
2023-05-01T17:15:21.309Z,4.05
2023-05-01T17:17:49.465Z,2.95
2023-05-01T17:20:17.944Z,2.55
2023-05-01T17:22:46.429Z,3.30
2023-05-01T17:25:15.631Z,2.45
2023-05-01T17:27:44.058Z,2.72
2023-05-01T17:30:12.531Z,2.60
2023-05-01T17:32:40.886Z,2.53
2023-05-01T17:35:09.392Z,2.88
2023-05-01T17:37:40.123Z,2.00
2023-05-01T17:40:12.024Z,3.33
2023-05-01T17:42:40.692Z,3.40
2023-05-01T17:45:12.867Z,3.67
2023-05-01T17:47:43.104Z,6.20
2023-05-01T17:50:13.254Z,2.47
2023-05-01T17:52:43.834Z,3.55
2023-05-01T17:55:13.041Z,4.32
2023-05-01T17:57:42.333Z,2.72
2023-05-01T18:00:14.150Z,7.82
2023-05-01T18:02:45.226Z,2.72
2023-05-01T18:05:13.994Z,2.83
2023-05-01T18:07:42.228Z,3.47
2023-05-01T18:10:11.507Z,2.83
2023-05-01T18:12:39.895Z,4.68
2023-05-01T18:15:08.850Z,4.10
2023-05-01T18:17:36.990Z,5.20
2023-05-01T18:20:05.812Z,2.97
2023-05-01T18:22:34.879Z,4.72
2023-05-01T18:25:05.012Z,3.20
2023-05-01T18:27:33.730Z,2.53
2023-05-01T18:30:02.149Z,3.97
2023-05-01T18:32:43.252Z,2.80
2023-05-01T18:35:15.379Z,2.70
2023-05-01T18:37:44.310Z,3.30
2023-05-01T18:40:13.147Z,2.63
2023-05-01T18:42:42.113Z,3.03
2023-05-01T18:45:11.026Z,2.65
2023-05-01T18:47:39.223Z,4.88
2023-05-01T18:50:08.135Z,3.38
2023-05-01T18:52:37.332Z,2.33
2023-05-01T18:55:05.827Z,3.55
2023-05-01T18:57:34.412Z,3.63
2023-05-01T19:00:02.683Z,3.88
2023-05-01T19:02:30.826Z,4.47
2023-05-01T19:04:59.044Z,4.93
2023-05-01T19:07:27.454Z,3.80
2023-05-01T19:09:55.831Z,4.78
2023-05-01T19:12:23.997Z,4.88
2023-05-01T19:14:52.211Z,2.97
2023-05-01T19:17:20.963Z,5.40
2023-05-01T19:19:49.065Z,4.03
2023-05-01T19:22:17.141Z,3.20
2023-05-01T19:24:45.402Z,3.58
2023-05-01T19:27:13.560Z,3.50
2023-05-01T19:29:42.291Z,2.70
2023-05-01T19:32:10.897Z,4.82
2023-05-01T19:34:39.143Z,4.60
2023-05-01T19:37:07.307Z,4.50
2023-05-01T19:39:35.932Z,4.40
2023-05-01T19:42:04.303Z,5.13
2023-05-01T19:44:32.355Z,5.45
2023-05-01T19:47:00.644Z,3.25
2023-05-01T19:49:29.154Z,5.72
2023-05-01T19:52:00.874Z,3.70
2023-05-01T19:54:29.369Z,5.38
2023-05-01T19:56:57.669Z,4.30
2023-05-01T19:59:25.663Z,3.33
2023-05-01T20:01:54.231Z,3.17
2023-05-01T20:04:24.383Z,4.43
2023-05-01T20:06:52.829Z,3.95
2023-05-01T20:09:20.945Z,3.50
2023-05-01T20:11:49.193Z,4.75
2023-05-01T20:14:17.550Z,5.07
2023-05-01T20:16:45.665Z,4.95
2023-05-01T20:19:16.805Z,3.53
2023-05-01T20:21:45.172Z,3.80
2023-05-01T20:24:13.197Z,3.95
2023-05-01T20:26:41.240Z,4.75
2023-05-01T20:29:10.340Z,5.32
2023-05-01T20:31:38.726Z,4.50
2023-05-01T20:34:06.823Z,4.00
2023-05-01T20:36:36.317Z,4.05
2023-05-01T20:39:04.565Z,4.07
2023-05-01T20:41:32.452Z,5.70
2023-05-01T20:44:01.316Z,4.53
2023-05-01T20:46:30.152Z,3.70
2023-05-01T20:48:58.930Z,6.20
2023-05-01T20:51:32.334Z,3.85
2023-05-01T20:54:00.419Z,3.85
2023-05-01T20:56:28.791Z,2.88
2023-05-01T20:58:56.991Z,6.38
2023-05-01T21:01:25.216Z,3.45
2023-05-01T21:03:53.710Z,5.25
2023-05-01T21:06:21.966Z,3.47
2023-05-01T21:08:50.213Z,3.78
2023-05-01T21:11:18.473Z,4.57
2023-05-01T21:13:46.425Z,6.18
2023-05-01T21:16:16.092Z,4.72
2023-05-01T21:18:44.249Z,4.38
2023-05-01T21:21:16.106Z,4.68
2023-05-01T21:23:50.959Z,4.28
2023-05-01T21:26:20.351Z,3.78
2023-05-01T21:28:48.635Z,4.45
2023-05-01T21:31:17.337Z,5.15
2023-05-01T21:33:48.467Z,3.47
2023-05-01T21:36:18.710Z,7.15
2023-05-01T21:38:46.875Z,3.67
2023-05-01T21:41:18.274Z,3.30
2023-05-01T21:43:47.172Z,2.38
2023-05-01T21:46:17.535Z,3.53
2023-05-01T21:48:51.833Z,4.22
2023-05-01T21:51:19.892Z,2.95
2023-05-01T21:53:48.232Z,3.72
2023-05-01T21:56:16.342Z,4.13
2023-05-01T21:58:44.499Z,3.80
2023-05-01T22:01:14.584Z,4.97
2023-05-01T22:03:44.781Z,4.03
2023-05-01T22:06:13.512Z,3.17
2023-05-01T22:08:42.209Z,3.35
2023-05-01T22:11:10.205Z,4.32
2023-05-01T22:13:38.681Z,4.07
2023-05-01T22:16:07.349Z,2.65
2023-05-01T22:18:35.857Z,2.83
2023-05-01T22:21:04.783Z,3.22
2023-05-01T22:23:32.819Z,3.28
2023-05-01T22:26:01.374Z,4.05
2023-05-01T22:28:29.519Z,3.53
2023-05-01T22:30:58.060Z,3.90
2023-05-01T22:33:26.466Z,3.28
2023-05-01T22:35:54.588Z,3.80
2023-05-01T22:38:22.850Z,3.22
2023-05-01T22:40:51.008Z,3.35
2023-05-01T22:43:19.444Z,4.70
2023-05-01T22:45:47.506Z,6.85
2023-05-01T22:48:15.604Z,4.55
2023-05-01T22:50:43.996Z,3.22
2023-05-01T22:53:12.349Z,3.10
2023-05-01T22:55:40.688Z,4.47
2023-05-01T22:58:08.844Z,6.13
2023-05-01T23:00:37.219Z,4.30
2023-05-01T23:03:05.681Z,3.53
2023-05-01T23:05:33.892Z,4.03
2023-05-01T23:08:02.344Z,2.38
2023-05-01T23:10:33.533Z,2.78
2023-05-01T23:15:30.383Z,3.13
2023-05-01T23:17:59.188Z,4.95
2023-05-01T23:20:27.531Z,3.50
2023-05-01T23:22:55.632Z,2.42
2023-05-01T23:25:26.993Z,4.80
2023-05-01T23:27:57.012Z,2.67
2023-05-01T23:30:25.292Z,3.90
2023-05-01T23:32:54.583Z,4.07
2023-05-01T23:35:24.103Z,2.25
2023-05-01T23:37:53.197Z,4.45
2023-05-01T23:40:21.474Z,3.53
2023-05-01T23:42:50.070Z,3.10
2023-05-01T23:45:18.346Z,3.50
2023-05-01T23:47:48.809Z,3.05
2023-05-01T23:50:17.095Z,5.00
2023-05-01T23:52:45.465Z,2.85
2023-05-01T23:55:13.588Z,3.92
2023-05-01T23:57:41.486Z,4.35
